sensor_id;sensor_type;location;lat;lon;timestamp;pressure;altitude;pressure_sealevel;temperature;humidity
18323;BME280;9287;49.456;11.064;2023-06-04T00:01:28;98264.63;;;14.71;39.46
18323;BME280;9287;49.456;11.064;2023-06-04T00:03:56;98263.75;;;14.63;39.64
18323;BME280;9287;49.456;11.064;2023-06-04T00:06:24;98258.97;;;14.60;39.74
18323;BME280;9287;49.456;11.064;2023-06-04T00:08:53;98245.91;;;14.50;39.85
18323;BME280;9287;49.456;11.064;2023-06-04T00:11:20;98254.88;;;14.47;40.01
18323;BME280;9287;49.456;11.064;2023-06-04T00:13:50;98245.38;;;14.41;40.16
18323;BME280;9287;49.456;11.064;2023-06-04T00:16:18;98228.88;;;14.41;40.24
18323;BME280;9287;49.456;11.064;2023-06-04T00:18:46;98239.34;;;14.32;40.41
18323;BME280;9287;49.456;11.064;2023-06-04T00:21:14;98237.31;;;14.29;40.82
18323;BME280;9287;49.456;11.064;2023-06-04T00:23:42;98239.59;;;14.23;40.68
18323;BME280;9287;49.456;11.064;2023-06-04T00:26:12;98234.19;;;14.31;40.66
18323;BME280;9287;49.456;11.064;2023-06-04T00:28:40;98234.56;;;14.29;40.62
18323;BME280;9287;49.456;11.064;2023-06-04T00:31:09;98238.28;;;14.14;40.89
18323;BME280;9287;49.456;11.064;2023-06-04T00:33:39;98233.28;;;14.23;40.69
18323;BME280;9287;49.456;11.064;2023-06-04T00:36:07;98238.16;;;14.07;40.97
18323;BME280;9287;49.456;11.064;2023-06-04T00:38:35;98240.59;;;14.12;40.89
18323;BME280;9287;49.456;11.064;2023-06-04T00:41:03;98244.81;;;14.06;41.36
18323;BME280;9287;49.456;11.064;2023-06-04T00:43:31;98243.13;;;13.98;41.29
18323;BME280;9287;49.456;11.064;2023-06-04T00:46:05;98240.38;;;13.98;41.23
18323;BME280;9287;49.456;11.064;2023-06-04T00:48:35;98237.22;;;13.96;41.27
18323;BME280;9287;49.456;11.064;2023-06-04T00:51:04;98241.41;;;13.89;41.33
18323;BME280;9287;49.456;11.064;2023-06-04T00:53:37;98239.81;;;13.88;41.18
18323;BME280;9287;49.456;11.064;2023-06-04T00:56:06;98252.81;;;13.91;41.86
18323;BME280;9287;49.456;11.064;2023-06-04T00:58:38;98255.84;;;13.83;41.71
18323;BME280;9287;49.456;11.064;2023-06-04T01:01:12;98244.50;;;13.84;41.71
18323;BME280;9287;49.456;11.064;2023-06-04T01:03:47;98243.56;;;13.77;42.02
18323;BME280;9287;49.456;11.064;2023-06-04T01:06:25;98240.38;;;13.75;41.92
18323;BME280;9287;49.456;11.064;2023-06-04T01:09:00;98248.03;;;13.62;41.99
18323;BME280;9287;49.456;11.064;2023-06-04T01:11:31;98244.56;;;13.65;41.90
18323;BME280;9287;49.456;11.064;2023-06-04T01:14:03;98238.38;;;13.49;42.16
18323;BME280;9287;49.456;11.064;2023-06-04T01:16:35;98247.88;;;13.55;41.79
18323;BME280;9287;49.456;11.064;2023-06-04T01:19:12;98252.56;;;13.54;42.30
18323;BME280;9287;49.456;11.064;2023-06-04T01:21:49;98248.56;;;13.48;42.27
18323;BME280;9287;49.456;11.064;2023-06-04T01:24:21;98253.25;;;13.48;42.06
18323;BME280;9287;49.456;11.064;2023-06-04T01:26:50;98252.50;;;13.51;41.88
18323;BME280;9287;49.456;11.064;2023-06-04T01:29:22;98247.88;;;13.55;42.06
18323;BME280;9287;49.456;11.064;2023-06-04T01:31:52;98253.38;;;13.55;41.93
18323;BME280;9287;49.456;11.064;2023-06-04T01:34:22;98253.38;;;13.55;42.09
18323;BME280;9287;49.456;11.064;2023-06-04T01:36:50;98262.25;;;13.68;42.20
18323;BME280;9287;49.456;11.064;2023-06-04T01:39:18;98253.94;;;13.64;41.94
18323;BME280;9287;49.456;11.064;2023-06-04T01:41:46;98258.69;;;13.67;42.47
18323;BME280;9287;49.456;11.064;2023-06-04T01:44:17;98262.28;;;13.71;42.50
18323;BME280;9287;49.456;11.064;2023-06-04T01:46:45;98257.41;;;13.61;42.62
18323;BME280;9287;49.456;11.064;2023-06-04T01:49:12;98257.50;;;13.68;42.90
18323;BME280;9287;49.456;11.064;2023-06-04T01:51:42;98260.75;;;13.51;42.91
18323;BME280;9287;49.456;11.064;2023-06-04T01:54:10;98266.53;;;13.46;42.59
18323;BME280;9287;49.456;11.064;2023-06-04T01:56:38;98265.75;;;13.45;42.66
18323;BME280;9287;49.456;11.064;2023-06-04T01:59:06;98261.34;;;13.41;42.80
18323;BME280;9287;49.456;11.064;2023-06-04T02:01:34;98263.38;;;13.44;43.37
18323;BME280;9287;49.456;11.064;2023-06-04T02:04:04;98272.75;;;13.43;43.03
18323;BME280;9287;49.456;11.064;2023-06-04T02:06:32;98272.19;;;13.34;43.20
18323;BME280;9287;49.456;11.064;2023-06-04T02:09:01;98266.38;;;13.16;43.22
18323;BME280;9287;49.456;11.064;2023-06-04T02:11:37;98266.56;;;13.07;43.32
18323;BME280;9287;49.456;11.064;2023-06-04T02:14:10;98273.63;;;13.08;43.60
18323;BME280;9287;49.456;11.064;2023-06-04T02:16:38;98269.75;;;13.09;43.56
18323;BME280;9287;49.456;11.064;2023-06-04T02:19:06;98275.22;;;13.09;43.63
18323;BME280;9287;49.456;11.064;2023-06-04T02:21:34;98279.97;;;13.12;44.53
18323;BME280;9287;49.456;11.064;2023-06-04T02:24:03;98273.63;;;13.08;45.55
18323;BME280;9287;49.456;11.064;2023-06-04T02:26:32;98279.13;;;13.08;45.54
18323;BME280;9287;49.456;11.064;2023-06-04T02:29:01;98283.88;;;13.11;46.28
18323;BME280;9287;49.456;11.064;2023-06-04T02:31:29;98292.53;;;12.94;47.75
18323;BME280;9287;49.456;11.064;2023-06-04T02:33:57;98287.03;;;12.75;48.38
18323;BME280;9287;49.456;11.064;2023-06-04T02:36:25;98286.31;;;12.78;46.49
18323;BME280;9287;49.456;11.064;2023-06-04T02:38:53;98284.16;;;12.87;45.56
18323;BME280;9287;49.456;11.064;2023-06-04T02:41:23;98285.75;;;12.88;46.60
18323;BME280;9287;49.456;11.064;2023-06-04T02:43:51;98273.19;;;12.87;48.51
18323;BME280;9287;49.456;11.064;2023-06-04T02:46:20;98270.88;;;12.70;46.35
18323;BME280;9287;49.456;11.064;2023-06-04T02:48:48;98279.88;;;12.70;45.69
18323;BME280;9287;49.456;11.064;2023-06-04T02:51:16;98280.69;;;12.71;45.89
18323;BME280;9287;49.456;11.064;2023-06-04T02:53:43;98284.75;;;12.77;46.22
18323;BME280;9287;49.456;11.064;2023-06-04T02:56:12;98279.53;;;12.72;46.90
18323;BME280;9287;49.456;11.064;2023-06-04T02:58:49;98281.47;;;12.71;49.27
18323;BME280;9287;49.456;11.064;2023-06-04T03:01:18;98285.28;;;12.67;48.89
18323;BME280;9287;49.456;11.064;2023-06-04T03:03:47;98275.47;;;12.46;50.25
18323;BME280;9287;49.456;11.064;2023-06-04T03:06:16;98285.47;;;12.39;48.78
18323;BME280;9287;49.456;11.064;2023-06-04T03:08:47;98284.88;;;12.49;48.16
18323;BME280;9287;49.456;11.064;2023-06-04T03:11:14;98286.56;;;12.53;48.56
18323;BME280;9287;49.456;11.064;2023-06-04T03:13:42;98289.56;;;12.48;48.52
18323;BME280;9287;49.456;11.064;2023-06-04T03:16:12;98280.94;;;12.46;49.60
18323;BME280;9287;49.456;11.064;2023-06-04T03:18:40;98295.34;;;12.43;49.79
18323;BME280;9287;49.456;11.064;2023-06-04T03:21:09;98292.44;;;12.36;49.11
18323;BME280;9287;49.456;11.064;2023-06-04T03:23:37;98288.09;;;12.35;49.04
18323;BME280;9287;49.456;11.064;2023-06-04T03:26:06;98297.91;;;12.36;48.39
18323;BME280;9287;49.456;11.064;2023-06-04T03:28:34;98293.31;;;12.40;49.40
18323;BME280;9287;49.456;11.064;2023-06-04T03:31:02;98294.03;;;12.37;48.39
18323;BME280;9287;49.456;11.064;2023-06-04T03:33:32;98290.69;;;12.28;47.72
18323;BME280;9287;49.456;11.064;2023-06-04T03:35:59;98303.16;;;12.26;47.76
18323;BME280;9287;49.456;11.064;2023-06-04T03:38:28;98301.81;;;12.35;48.48
18323;BME280;9287;49.456;11.064;2023-06-04T03:40:56;98296.19;;;12.28;48.21
18323;BME280;9287;49.456;11.064;2023-06-04T03:43:23;98293.16;;;12.33;47.88
18323;BME280;9287;49.456;11.064;2023-06-04T03:45:51;98293.16;;;12.33;50.81
18323;BME280;9287;49.456;11.064;2023-06-04T03:48:19;98303.94;;;12.26;48.69
18323;BME280;9287;49.456;11.064;2023-06-04T03:50:48;98304.56;;;12.19;49.23
18323;BME280;9287;49.456;11.064;2023-06-04T03:53:17;98306.41;;;12.31;49.18
18323;BME280;9287;49.456;11.064;2023-06-04T03:55:44;98303.84;;;12.38;48.26
18323;BME280;9287;49.456;11.064;2023-06-04T03:58:12;98309.56;;;12.33;47.96
18323;BME280;9287;49.456;11.064;2023-06-04T04:00:41;98307.53;;;12.30;48.21
18323;BME280;9287;49.456;11.064;2023-06-04T04:03:09;98311.53;;;12.17;48.36
18323;BME280;9287;49.456;11.064;2023-06-04T04:05:37;98302.44;;;12.29;49.33
18323;BME280;9287;49.456;11.064;2023-06-04T04:08:09;98307.13;;;12.28;49.29
18323;BME280;9287;49.456;11.064;2023-06-04T04:10:42;98307.97;;;12.32;54.14
18323;BME280;9287;49.456;11.064;2023-06-04T04:13:11;98312.50;;;12.40;56.71
18323;BME280;9287;49.456;11.064;2023-06-04T04:15:42;98316.50;;;12.27;55.36
18323;BME280;9287;49.456;11.064;2023-06-04T04:18:11;98312.94;;;12.42;55.83
18323;BME280;9287;49.456;11.064;2023-06-04T04:20:45;98314.53;;;12.43;53.86
18323;BME280;9287;49.456;11.064;2023-06-04T04:23:22;98307.16;;;12.63;54.19
18323;BME280;9287;49.456;11.064;2023-06-04T04:25:50;98302.28;;;12.57;51.38
18323;BME280;9287;49.456;11.064;2023-06-04T04:28:19;98308.91;;;12.55;49.60
18323;BME280;9287;49.456;11.064;2023-06-04T04:30:49;98309.38;;;12.58;50.03
18323;BME280;9287;49.456;11.064;2023-06-04T04:33:18;98304.63;;;12.74;52.83
18323;BME280;9287;49.456;11.064;2023-06-04T04:35:45;98305.38;;;12.55;49.79
18323;BME280;9287;49.456;11.064;2023-06-04T04:38:17;98305.34;;;12.71;49.39
18323;BME280;9287;49.456;11.064;2023-06-04T04:40:47;98309.66;;;12.72;50.04
18323;BME280;9287;49.456;11.064;2023-06-04T04:43:16;98312.41;;;12.72;51.24
18323;BME280;9287;49.456;11.064;2023-06-04T04:45:44;98321.59;;;12.79;50.89
18323;BME280;9287;49.456;11.064;2023-06-04T04:48:16;98325.66;;;12.70;49.55
18323;BME280;9287;49.456;11.064;2023-06-04T04:50:45;98317.69;;;12.80;49.21
18323;BME280;9287;49.456;11.064;2023-06-04T04:53:23;98322.25;;;12.92;49.60
18323;BME280;9287;49.456;11.064;2023-06-04T04:55:54;98328.78;;;12.87;50.24
18323;BME280;9287;49.456;11.064;2023-06-04T04:58:25;98318.13;;;13.02;49.79
18323;BME280;9287;49.456;11.064;2023-06-04T05:00:52;98325.00;;;12.92;49.26
18323;BME280;9287;49.456;11.064;2023-06-04T05:03:21;98323.97;;;13.16;49.35
18323;BME280;9287;49.456;11.064;2023-06-04T05:05:52;98328.47;;;13.08;49.98
18323;BME280;9287;49.456;11.064;2023-06-04T05:08:20;98332.06;;;12.93;49.10
18323;BME280;9287;49.456;11.064;2023-06-04T05:10:54;98335.31;;;12.99;49.50
18323;BME280;9287;49.456;11.064;2023-06-04T05:13:22;98337.28;;;12.98;49.16
18323;BME280;9287;49.456;11.064;2023-06-04T05:16:00;98338.16;;;13.21;48.93
18323;BME280;9287;49.456;11.064;2023-06-04T05:18:33;98344.34;;;13.18;49.00
18323;BME280;9287;49.456;11.064;2023-06-04T05:21:03;98345.66;;;13.44;49.23
18323;BME280;9287;49.456;11.064;2023-06-04T05:23:31;98342.56;;;13.45;49.07
18323;BME280;9287;49.456;11.064;2023-06-04T05:26:05;98349.56;;;13.43;48.88
18323;BME280;9287;49.456;11.064;2023-06-04T05:28:35;98343.91;;;13.55;48.73
18323;BME280;9287;49.456;11.064;2023-06-04T05:31:07;98350.47;;;13.70;48.44
18323;BME280;9287;49.456;11.064;2023-06-04T05:33:35;98352.69;;;13.83;48.10
18323;BME280;9287;49.456;11.064;2023-06-04T05:36:03;98358.06;;;13.57;48.17
18323;BME280;9287;49.456;11.064;2023-06-04T05:38:34;98349.19;;;13.64;48.04
18323;BME280;9287;49.456;11.064;2023-06-04T05:41:05;98353.53;;;13.87;47.97
18323;BME280;9287;49.456;11.064;2023-06-04T05:43:34;98353.00;;;14.01;47.77
18323;BME280;9287;49.456;11.064;2023-06-04T05:46:05;98363.19;;;14.01;48.08
18323;BME280;9287;49.456;11.064;2023-06-04T05:48:34;98366.41;;;14.29;47.31
18323;BME280;9287;49.456;11.064;2023-06-04T05:51:06;98367.44;;;14.21;47.04
18323;BME280;9287;49.456;11.064;2023-06-04T05:53:37;98364.31;;;14.19;47.36
18323;BME280;9287;49.456;11.064;2023-06-04T05:56:06;98366.25;;;14.41;47.02
18323;BME280;9287;49.456;11.064;2023-06-04T05:58:34;98365.50;;;14.44;46.93
18323;BME280;9287;49.456;11.064;2023-06-04T06:01:05;98360.09;;;14.48;47.00
18323;BME280;9287;49.456;11.064;2023-06-04T06:03:35;98360.88;;;14.48;47.09
18323;BME280;9287;49.456;11.064;2023-06-04T06:06:04;98369.91;;;14.26;47.34
18323;BME280;9287;49.456;11.064;2023-06-04T06:08:32;98362.09;;;14.51;47.53
18323;BME280;9287;49.456;11.064;2023-06-04T06:11:02;98370.03;;;14.82;47.26
18323;BME280;9287;49.456;11.064;2023-06-04T06:13:38;98376.50;;;14.97;46.43
18323;BME280;9287;49.456;11.064;2023-06-04T06:16:06;98377.69;;;14.70;46.55
18323;BME280;9287;49.456;11.064;2023-06-04T06:18:34;98372.84;;;14.86;46.32
18323;BME280;9287;49.456;11.064;2023-06-04T06:21:02;98379.00;;;15.06;46.31
18323;BME280;9287;49.456;11.064;2023-06-04T06:23:35;98377.66;;;15.22;45.95
18323;BME280;9287;49.456;11.064;2023-06-04T06:26:05;98374.25;;;15.32;45.71
18323;BME280;9287;49.456;11.064;2023-06-04T06:28:34;98382.25;;;15.15;45.96
18323;BME280;9287;49.456;11.064;2023-06-04T06:31:05;98373.91;;;15.38;45.63
18323;BME280;9287;49.456;11.064;2023-06-04T06:33:33;98380.91;;;15.31;45.92
18323;BME280;9287;49.456;11.064;2023-06-04T06:36:01;98372.84;;;15.16;45.96
18323;BME280;9287;49.456;11.064;2023-06-04T06:38:29;98373.25;;;15.48;45.67
18323;BME280;9287;49.456;11.064;2023-06-04T06:40:58;98377.53;;;15.75;45.36
18323;BME280;9287;49.456;11.064;2023-06-04T06:43:26;98384.06;;;16.00;45.55
18323;BME280;9287;49.456;11.064;2023-06-04T06:45:53;98381.81;;;16.10;44.45
18323;BME280;9287;49.456;11.064;2023-06-04T06:48:23;98385.81;;;16.16;44.46
18323;BME280;9287;49.456;11.064;2023-06-04T06:50:51;98379.50;;;16.15;44.49
18323;BME280;9287;49.456;11.064;2023-06-04T06:53:18;98383.88;;;16.20;44.96
18323;BME280;9287;49.456;11.064;2023-06-04T06:55:46;98385.13;;;16.26;44.49
18323;BME280;9287;49.456;11.064;2023-06-04T06:58:14;98388.31;;;16.31;44.15
18323;BME280;9287;49.456;11.064;2023-06-04T07:00:42;98387.88;;;16.70;43.77
18323;BME280;9287;49.456;11.064;2023-06-04T07:03:10;98383.22;;;16.85;43.88
18323;BME280;9287;49.456;11.064;2023-06-04T07:05:39;98392.78;;;16.98;43.38
18323;BME280;9287;49.456;11.064;2023-06-04T07:08:07;98381.97;;;17.40;43.06
18323;BME280;9287;49.456;11.064;2023-06-04T07:10:35;98382.25;;;17.14;43.07
18323;BME280;9287;49.456;11.064;2023-06-04T07:13:02;98376.72;;;17.14;43.07
18323;BME280;9287;49.456;11.064;2023-06-04T07:15:30;98386.84;;;17.72;42.06
18323;BME280;9287;49.456;11.064;2023-06-04T07:17:58;98393.25;;;17.97;42.25
18323;BME280;9287;49.456;11.064;2023-06-04T07:20:25;98378.31;;;18.66;40.97
18323;BME280;9287;49.456;11.064;2023-06-04T07:22:54;98382.13;;;19.32;39.90
18323;BME280;9287;49.456;11.064;2023-06-04T07:25:22;98375.63;;;19.81;38.68
18323;BME280;9287;49.456;11.064;2023-06-04T07:27:50;98375.31;;;20.28;37.80
18323;BME280;9287;49.456;11.064;2023-06-04T07:30:18;98378.75;;;21.96;35.57
18323;BME280;9287;49.456;11.064;2023-06-04T07:32:47;98378.66;;;22.34;33.99
18323;BME280;9287;49.456;11.064;2023-06-04T07:35:15;98372.84;;;23.38;32.78
18323;BME280;9287;49.456;11.064;2023-06-04T07:37:43;98376.47;;;23.15;32.94
18323;BME280;9287;49.456;11.064;2023-06-04T07:40:15;98384.31;;;25.00;30.36
18323;BME280;9287;49.456;11.064;2023-06-04T07:42:45;98378.75;;;26.63;28.99
18323;BME280;9287;49.456;11.064;2023-06-04T07:45:14;98364.91;;;27.50;27.39
18323;BME280;9287;49.456;11.064;2023-06-04T07:47:42;98376.09;;;26.47;28.53
18323;BME280;9287;49.456;11.064;2023-06-04T07:50:10;98373.38;;;28.92;25.48
18323;BME280;9287;49.456;11.064;2023-06-04T07:52:38;98381.84;;;26.78;28.00
18323;BME280;9287;49.456;11.064;2023-06-04T07:55:06;98371.47;;;27.56;27.23
18323;BME280;9287;49.456;11.064;2023-06-04T07:57:36;98371.47;;;28.00;26.87
18323;BME280;9287;49.456;11.064;2023-06-04T08:00:05;98371.31;;;26.69;28.36
18323;BME280;9287;49.456;11.064;2023-06-04T08:02:35;98370.34;;;26.50;28.55
18323;BME280;9287;49.456;11.064;2023-06-04T08:05:03;98360.28;;;27.78;27.07
18323;BME280;9287;49.456;11.064;2023-06-04T08:07:31;98362.22;;;27.25;27.35
18323;BME280;9287;49.456;11.064;2023-06-04T08:09:59;98355.72;;;28.33;26.64
18323;BME280;9287;49.456;11.064;2023-06-04T08:12:27;98359.03;;;29.36;25.30
18323;BME280;9287;49.456;11.064;2023-06-04T08:14:56;98363.44;;;27.58;26.81
18323;BME280;9287;49.456;11.064;2023-06-04T08:17:24;98359.47;;;30.64;24.09
18323;BME280;9287;49.456;11.064;2023-06-04T08:19:52;98361.19;;;29.77;24.66
18323;BME280;9287;49.456;11.064;2023-06-04T08:22:20;98350.94;;;31.74;22.97
18323;BME280;9287;49.456;11.064;2023-06-04T08:24:47;98355.94;;;31.56;22.97
18323;BME280;9287;49.456;11.064;2023-06-04T08:27:15;98362.16;;;30.59;23.72
18323;BME280;9287;49.456;11.064;2023-06-04T08:29:44;98354.59;;;29.90;24.24
18323;BME280;9287;49.456;11.064;2023-06-04T08:32:13;98360.75;;;29.06;25.10
18323;BME280;9287;49.456;11.064;2023-06-04T08:34:41;98357.16;;;29.15;25.21
18323;BME280;9287;49.456;11.064;2023-06-04T08:37:08;98358.72;;;31.79;22.46
18323;BME280;9287;49.456;11.064;2023-06-04T08:39:36;98359.47;;;32.74;22.18
18323;BME280;9287;49.456;11.064;2023-06-04T08:42:06;98360.31;;;28.58;24.70
18323;BME280;9287;49.456;11.064;2023-06-04T08:44:35;98356.03;;;30.27;23.63
18323;BME280;9287;49.456;11.064;2023-06-04T08:47:04;98357.50;;;30.46;23.09
18323;BME280;9287;49.456;11.064;2023-06-04T08:49:35;98355.88;;;30.64;22.90
18323;BME280;9287;49.456;11.064;2023-06-04T08:52:04;98356.28;;;30.71;23.58
18323;BME280;9287;49.456;11.064;2023-06-04T08:54:32;98352.81;;;30.43;23.49
18323;BME280;9287;49.456;11.064;2023-06-04T08:57:00;98354.81;;;31.00;22.52
18323;BME280;9287;49.456;11.064;2023-06-04T08:59:28;98356.13;;;30.75;22.44
18323;BME280;9287;49.456;11.064;2023-06-04T09:01:56;98360.00;;;29.42;23.96
18323;BME280;9287;49.456;11.064;2023-06-04T09:04:25;98354.13;;;30.33;23.26
18323;BME280;9287;49.456;11.064;2023-06-04T09:06:54;98353.22;;;30.84;22.69
18323;BME280;9287;49.456;11.064;2023-06-04T09:09:23;98350.91;;;29.47;23.22
18323;BME280;9287;49.456;11.064;2023-06-04T09:11:54;98353.44;;;32.31;21.65
18323;BME280;9287;49.456;11.064;2023-06-04T09:14:23;98366.03;;;32.01;21.53
18323;BME280;9287;49.456;11.064;2023-06-04T09:16:52;98359.50;;;31.95;21.61
18323;BME280;9287;49.456;11.064;2023-06-04T09:19:21;98355.28;;;32.69;20.15
18323;BME280;9287;49.456;11.064;2023-06-04T09:21:50;98357.59;;;30.28;22.40
18323;BME280;9287;49.456;11.064;2023-06-04T09:24:20;98362.88;;;30.35;22.21
18323;BME280;9287;49.456;11.064;2023-06-04T09:26:49;98358.69;;;31.50;22.65
18323;BME280;9287;49.456;11.064;2023-06-04T09:29:17;98348.84;;;32.69;21.57
18323;BME280;9287;49.456;11.064;2023-06-04T09:31:46;98351.03;;;33.66;20.83
18323;BME280;9287;49.456;11.064;2023-06-04T09:34:14;98355.09;;;33.34;19.80
18323;BME280;9287;49.456;11.064;2023-06-04T09:36:42;98359.31;;;31.83;21.54
18323;BME280;9287;49.456;11.064;2023-06-04T09:39:18;98350.63;;;31.19;22.40
18323;BME280;9287;49.456;11.064;2023-06-04T09:41:57;98355.41;;;28.22;25.17
18323;BME280;9287;49.456;11.064;2023-06-04T09:44:26;98343.41;;;28.00;25.55
18323;BME280;9287;49.456;11.064;2023-06-04T09:46:56;98352.59;;;28.31;25.20
18323;BME280;9287;49.456;11.064;2023-06-04T09:49:24;98346.13;;;29.99;23.48
18323;BME280;9287;49.456;11.064;2023-06-04T09:51:52;98347.53;;;28.17;24.28
18323;BME280;9287;49.456;11.064;2023-06-04T09:54:22;98342.78;;;29.31;25.02
18323;BME280;9287;49.456;11.064;2023-06-04T09:56:50;98340.59;;;29.44;24.42
18323;BME280;9287;49.456;11.064;2023-06-04T09:59:21;98337.69;;;28.62;24.68
18323;BME280;9287;49.456;11.064;2023-06-04T10:01:50;98350.09;;;27.71;25.53
18323;BME280;9287;49.456;11.064;2023-06-04T10:04:21;98339.00;;;25.50;27.42
18323;BME280;9287;49.456;11.064;2023-06-04T10:06:58;98339.78;;;26.05;26.17
18323;BME280;9287;49.456;11.064;2023-06-04T10:09:29;98331.38;;;26.90;25.04
18323;BME280;9287;49.456;11.064;2023-06-04T10:11:59;98332.47;;;27.06;24.67
18323;BME280;9287;49.456;11.064;2023-06-04T10:14:34;98339.56;;;26.12;25.50
18323;BME280;9287;49.456;11.064;2023-06-04T10:17:04;98338.16;;;26.80;25.08
18323;BME280;9287;49.456;11.064;2023-06-04T10:19:35;98331.06;;;26.28;25.63
18323;BME280;9287;49.456;11.064;2023-06-04T10:22:08;98334.31;;;26.14;25.97
18323;BME280;9287;49.456;11.064;2023-06-04T10:24:40;98334.56;;;26.67;25.60
18323;BME280;9287;49.456;11.064;2023-06-04T10:27:10;98327.84;;;26.77;25.16
18323;BME280;9287;49.456;11.064;2023-06-04T10:29:43;98330.59;;;25.92;25.79
18323;BME280;9287;49.456;11.064;2023-06-04T10:32:13;98331.41;;;25.92;26.51
18323;BME280;9287;49.456;11.064;2023-06-04T10:34:41;98321.66;;;26.48;25.45
18323;BME280;9287;49.456;11.064;2023-06-04T10:37:18;98321.94;;;27.10;24.36
18323;BME280;9287;49.456;11.064;2023-06-04T10:39:53;98319.66;;;26.10;25.60
18323;BME280;9287;49.456;11.064;2023-06-04T10:42:21;98329.63;;;25.44;27.00
18323;BME280;9287;49.456;11.064;2023-06-04T10:44:51;98323.00;;;26.05;26.90
18323;BME280;9287;49.456;11.064;2023-06-04T10:47:24;98331.06;;;25.90;26.83
18323;BME280;9287;49.456;11.064;2023-06-04T10:49:53;98327.25;;;25.97;26.62
18323;BME280;9287;49.456;11.064;2023-06-04T10:52:22;98328.28;;;26.76;25.47
18323;BME280;9287;49.456;11.064;2023-06-04T10:54:51;98326.34;;;26.25;25.11
18323;BME280;9287;49.456;11.064;2023-06-04T10:57:31;98323.00;;;25.80;25.97
18323;BME280;9287;49.456;11.064;2023-06-04T11:00:00;98319.84;;;26.28;26.13
18323;BME280;9287;49.456;11.064;2023-06-04T11:02:29;98322.56;;;25.40;26.43
18323;BME280;9287;49.456;11.064;2023-06-04T11:05:02;98322.84;;;25.29;25.84
18323;BME280;9287;49.456;11.064;2023-06-04T11:07:42;98312.25;;;26.42;24.90
18323;BME280;9287;49.456;11.064;2023-06-04T11:10:14;98312.59;;;26.44;25.28
18323;BME280;9287;49.456;11.064;2023-06-04T11:12:43;98313.03;;;26.04;25.62
18323;BME280;9287;49.456;11.064;2023-06-04T11:15:12;98315.16;;;26.00;26.03
18323;BME280;9287;49.456;11.064;2023-06-04T11:17:51;98307.44;;;26.42;25.01
18323;BME280;9287;49.456;11.064;2023-06-04T11:20:21;98307.13;;;27.31;24.47
18323;BME280;9287;49.456;11.064;2023-06-04T11:22:53;98302.47;;;26.59;24.62
18323;BME280;9287;49.456;11.064;2023-06-04T11:25:27;98311.63;;;27.07;24.23
18323;BME280;9287;49.456;11.064;2023-06-04T11:27:59;98304.66;;;26.29;24.56
18323;BME280;9287;49.456;11.064;2023-06-04T11:30:32;98304.97;;;26.44;24.72
18323;BME280;9287;49.456;11.064;2023-06-04T11:33:09;98304.13;;;27.47;24.05
18323;BME280;9287;49.456;11.064;2023-06-04T11:35:43;98301.47;;;26.53;24.69
18323;BME280;9287;49.456;11.064;2023-06-04T11:38:12;98292.66;;;26.76;24.55
18323;BME280;9287;49.456;11.064;2023-06-04T11:40:59;98292.66;;;26.42;25.55
18323;BME280;9287;49.456;11.064;2023-06-04T11:43:29;98300.16;;;25.27;26.42
18323;BME280;9287;49.456;11.064;2023-06-04T11:46:05;98291.78;;;25.27;26.99
18323;BME280;9287;49.456;11.064;2023-06-04T11:48:39;98291.34;;;26.68;27.37
18323;BME280;9287;49.456;11.064;2023-06-04T11:51:08;98287.19;;;27.07;25.88
18323;BME280;9287;49.456;11.064;2023-06-04T11:53:41;98292.66;;;26.76;25.82
18323;BME280;9287;49.456;11.064;2023-06-04T11:56:14;98282.47;;;27.04;25.36
18323;BME280;9287;49.456;11.064;2023-06-04T11:58:47;98279.38;;;27.77;24.89
18323;BME280;9287;49.456;11.064;2023-06-04T12:01:22;98280.91;;;26.68;24.78
18323;BME280;9287;49.456;11.064;2023-06-04T12:03:55;98284.38;;;27.29;24.34
18323;BME280;9287;49.456;11.064;2023-06-04T12:06:29;98286.28;;;25.90;25.32
18323;BME280;9287;49.456;11.064;2023-06-04T12:09:04;98277.97;;;26.38;25.47
18323;BME280;9287;49.456;11.064;2023-06-04T12:11:38;98268.94;;;26.08;24.99
18323;BME280;9287;49.456;11.064;2023-06-04T12:14:15;98271.53;;;25.90;25.83
18323;BME280;9287;49.456;11.064;2023-06-04T12:16:57;98271.56;;;25.36;25.91
18323;BME280;9287;49.456;11.064;2023-06-04T12:19:27;98278.28;;;25.51;25.97
18323;BME280;9287;49.456;11.064;2023-06-04T12:22:01;98279.88;;;25.64;25.30
18323;BME280;9287;49.456;11.064;2023-06-04T12:24:31;98273.47;;;24.81;25.89
18323;BME280;9287;49.456;11.064;2023-06-04T12:27:04;98274.09;;;25.30;25.05
18323;BME280;9287;49.456;11.064;2023-06-04T12:29:34;98274.44;;;24.90;25.46
18323;BME280;9287;49.456;11.064;2023-06-04T12:32:06;98275.94;;;25.49;25.22
18323;BME280;9287;49.456;11.064;2023-06-04T12:34:39;98271.94;;;25.09;25.76
18323;BME280;9287;49.456;11.064;2023-06-04T12:37:07;98271.53;;;25.23;25.74
18323;BME280;9287;49.456;11.064;2023-06-04T12:39:36;98265.13;;;25.10;26.29
18323;BME280;9287;49.456;11.064;2023-06-04T12:42:07;98258.56;;;25.29;26.01
18323;BME280;9287;49.456;11.064;2023-06-04T12:44:35;98258.81;;;25.35;26.06
18323;BME280;9287;49.456;11.064;2023-06-04T12:47:03;98257.44;;;24.40;26.55
18323;BME280;9287;49.456;11.064;2023-06-04T12:49:32;98260.72;;;24.51;27.05
18323;BME280;9287;49.456;11.064;2023-06-04T12:51:59;98264.91;;;23.94;26.92
18323;BME280;9287;49.456;11.064;2023-06-04T12:54:27;98257.75;;;24.58;26.78
18323;BME280;9287;49.456;11.064;2023-06-04T12:56:55;98252.50;;;24.60;26.26
18323;BME280;9287;49.456;11.064;2023-06-04T12:59:25;98251.09;;;24.68;25.55
18323;BME280;9287;49.456;11.064;2023-06-04T13:01:54;98254.53;;;24.88;24.72
18323;BME280;9287;49.456;11.064;2023-06-04T13:04:22;98258.94;;;24.73;23.40
18323;BME280;9287;49.456;11.064;2023-06-04T13:06:50;98257.06;;;24.54;24.33
18323;BME280;9287;49.456;11.064;2023-06-04T13:09:22;98252.34;;;24.18;25.16
18323;BME280;9287;49.456;11.064;2023-06-04T13:11:50;98252.06;;;24.61;25.72
18323;BME280;9287;49.456;11.064;2023-06-04T13:14:19;98255.84;;;24.22;27.11